sensor_id;sensor_type;location;lat;lon;timestamp;P1;durP1;ratioP1;P2;durP2;ratioP2
5630;SDS011;2837;50.990;7.124;2022-10-16T05:01:35;155.43;;;12.77;;
5630;SDS011;2837;50.990;7.124;2022-10-16T05:04:01;156.47;;;13.17;;
5630;SDS011;2837;50.990;7.124;2022-10-16T05:06:26;160.70;;;12.67;;
5630;SDS011;2837;50.990;7.124;2022-10-16T05:08:52;156.00;;;13.00;;
5630;SDS011;2837;50.990;7.124;2022-10-16T05:11:17;155.93;;;12.63;;
5630;SDS011;2837;50.990;7.124;2022-10-16T05:13:43;154.77;;;11.70;;
5630;SDS011;2837;50.990;7.124;2022-10-16T05:16:09;155.87;;;12.90;;
5630;SDS011;2837;50.990;7.124;2022-10-16T05:18:34;155.80;;;12.63;;
5630;SDS011;2837;50.990;7.124;2022-10-16T05:21:00;155.47;;;12.50;;
5630;SDS011;2837;50.990;7.124;2022-10-16T05:23:25;155.87;;;13.13;;
5630;SDS011;2837;50.990;7.124;2022-10-16T05:25:51;154.90;;;11.57;;
5630;SDS011;2837;50.990;7.124;2022-10-16T05:28:19;156.77;;;13.30;;
5630;SDS011;2837;50.990;7.124;2022-10-16T05:30:44;157.50;;;13.07;;
5630;SDS011;2837;50.990;7.124;2022-10-16T05:33:10;155.80;;;11.80;;
5630;SDS011;2837;50.990;7.124;2022-10-16T05:35:35;156.17;;;13.00;;
5630;SDS011;2837;50.990;7.124;2022-10-16T05:38:01;155.70;;;12.10;;
5630;SDS011;2837;50.990;7.124;2022-10-16T05:40:26;156.27;;;13.20;;
5630;SDS011;2837;50.990;7.124;2022-10-16T05:42:54;155.27;;;11.60;;
5630;SDS011;2837;50.990;7.124;2022-10-16T05:45:20;154.80;;;11.47;;
5630;SDS011;2837;50.990;7.124;2022-10-16T05:47:46;154.57;;;11.30;;
5630;SDS011;2837;50.990;7.124;2022-10-16T05:50:11;156.97;;;14.50;;
5630;SDS011;2837;50.990;7.124;2022-10-16T05:52:37;156.57;;;13.80;;
5630;SDS011;2837;50.990;7.124;2022-10-16T05:55:03;156.23;;;13.77;;
5630;SDS011;2837;50.990;7.124;2022-10-16T05:57:29;155.90;;;13.10;;
5630;SDS011;2837;50.990;7.124;2022-10-16T05:59:54;156.20;;;13.80;;
5630;SDS011;2837;50.990;7.124;2022-10-16T06:02:20;155.97;;;12.83;;
5630;SDS011;2837;50.990;7.124;2022-10-16T06:04:46;156.50;;;13.33;;
5630;SDS011;2837;50.990;7.124;2022-10-16T06:07:11;157.27;;;12.93;;
5630;SDS011;2837;50.990;7.124;2022-10-16T06:09:37;155.50;;;12.10;;
5630;SDS011;2837;50.990;7.124;2022-10-16T06:12:03;155.97;;;12.70;;
5630;SDS011;2837;50.990;7.124;2022-10-16T06:14:28;155.57;;;12.50;;
5630;SDS011;2837;50.990;7.124;2022-10-16T06:16:54;156.47;;;13.77;;
5630;SDS011;2837;50.990;7.124;2022-10-16T06:19:19;155.47;;;12.37;;
5630;SDS011;2837;50.990;7.124;2022-10-16T06:21:45;157.57;;;13.47;;
5630;SDS011;2837;50.990;7.124;2022-10-16T06:24:11;157.40;;;13.93;;
5630;SDS011;2837;50.990;7.124;2022-10-16T06:26:36;156.80;;;12.93;;
5630;SDS011;2837;50.990;7.124;2022-10-16T06:29:03;155.90;;;13.20;;
5630;SDS011;2837;50.990;7.124;2022-10-16T06:31:28;155.27;;;13.10;;
5630;SDS011;2837;50.990;7.124;2022-10-16T06:33:56;156.37;;;13.43;;
5630;SDS011;2837;50.990;7.124;2022-10-16T06:36:22;156.40;;;12.87;;
5630;SDS011;2837;50.990;7.124;2022-10-16T06:38:49;155.90;;;13.47;;
5630;SDS011;2837;50.990;7.124;2022-10-16T06:41:16;155.20;;;11.63;;
5630;SDS011;2837;50.990;7.124;2022-10-16T06:43:43;156.37;;;13.00;;
5630;SDS011;2837;50.990;7.124;2022-10-16T06:46:12;156.47;;;13.77;;
5630;SDS011;2837;50.990;7.124;2022-10-16T06:48:39;154.70;;;11.97;;
5630;SDS011;2837;50.990;7.124;2022-10-16T06:51:10;161.90;;;12.20;;
5630;SDS011;2837;50.990;7.124;2022-10-16T06:53:41;154.93;;;11.50;;
5630;SDS011;2837;50.990;7.124;2022-10-16T06:56:16;156.57;;;13.20;;
5630;SDS011;2837;50.990;7.124;2022-10-16T06:58:43;157.57;;;12.87;;
5630;SDS011;2837;50.990;7.124;2022-10-16T07:01:09;156.73;;;12.37;;
5630;SDS011;2837;50.990;7.124;2022-10-16T07:03:36;154.90;;;11.77;;
5630;SDS011;2837;50.990;7.124;2022-10-16T07:06:04;154.47;;;11.17;;
5630;SDS011;2837;50.990;7.124;2022-10-16T07:08:34;155.10;;;10.87;;
5630;SDS011;2837;50.990;7.124;2022-10-16T07:11:01;155.30;;;11.90;;
5630;SDS011;2837;50.990;7.124;2022-10-16T07:13:38;158.10;;;10.40;;
5630;SDS011;2837;50.990;7.124;2022-10-16T07:18:33;154.53;;;11.10;;
5630;SDS011;2837;50.990;7.124;2022-10-16T07:21:03;154.47;;;11.07;;
5630;SDS011;2837;50.990;7.124;2022-10-16T07:23:29;153.90;;;10.73;;
5630;SDS011;2837;50.990;7.124;2022-10-16T07:25:55;157.80;;;10.93;;
5630;SDS011;2837;50.990;7.124;2022-10-16T07:28:20;154.20;;;10.13;;
5630;SDS011;2837;50.990;7.124;2022-10-16T07:30:46;154.67;;;11.23;;
5630;SDS011;2837;50.990;7.124;2022-10-16T07:33:12;155.10;;;10.33;;
5630;SDS011;2837;50.990;7.124;2022-10-16T07:35:38;153.57;;;10.00;;
5630;SDS011;2837;50.990;7.124;2022-10-16T07:38:11;155.17;;;10.70;;
5630;SDS011;2837;50.990;7.124;2022-10-16T07:40:37;154.60;;;9.67;;
5630;SDS011;2837;50.990;7.124;2022-10-16T07:43:02;157.60;;;9.67;;
5630;SDS011;2837;50.990;7.124;2022-10-16T07:45:30;154.40;;;10.23;;
5630;SDS011;2837;50.990;7.124;2022-10-16T07:47:55;155.40;;;11.37;;
5630;SDS011;2837;50.990;7.124;2022-10-16T07:50:21;154.07;;;10.27;;
5630;SDS011;2837;50.990;7.124;2022-10-16T07:52:46;155.27;;;10.47;;
5630;SDS011;2837;50.990;7.124;2022-10-16T07:55:12;154.27;;;9.07;;
5630;SDS011;2837;50.990;7.124;2022-10-16T07:57:38;154.27;;;10.40;;
5630;SDS011;2837;50.990;7.124;2022-10-16T08:00:03;154.47;;;10.77;;
5630;SDS011;2837;50.990;7.124;2022-10-16T08:02:30;154.40;;;10.50;;
5630;SDS011;2837;50.990;7.124;2022-10-16T08:04:56;155.27;;;10.70;;
5630;SDS011;2837;50.990;7.124;2022-10-16T08:07:22;154.37;;;10.77;;
5630;SDS011;2837;50.990;7.124;2022-10-16T08:09:50;159.87;;;10.47;;
5630;SDS011;2837;50.990;7.124;2022-10-16T08:12:16;154.73;;;10.00;;
5630;SDS011;2837;50.990;7.124;2022-10-16T08:14:42;154.60;;;10.43;;
5630;SDS011;2837;50.990;7.124;2022-10-16T08:17:08;153.30;;;9.77;;
5630;SDS011;2837;50.990;7.124;2022-10-16T08:19:33;155.00;;;10.87;;
5630;SDS011;2837;50.990;7.124;2022-10-16T08:21:59;153.67;;;10.20;;
5630;SDS011;2837;50.990;7.124;2022-10-16T08:24:25;153.50;;;9.57;;
5630;SDS011;2837;50.990;7.124;2022-10-16T08:26:53;153.60;;;10.43;;
5630;SDS011;2837;50.990;7.124;2022-10-16T08:29:19;154.70;;;10.20;;
5630;SDS011;2837;50.990;7.124;2022-10-16T08:31:45;154.20;;;10.53;;
5630;SDS011;2837;50.990;7.124;2022-10-16T08:34:10;155.20;;;10.20;;
5630;SDS011;2837;50.990;7.124;2022-10-16T08:36:36;153.00;;;9.30;;
5630;SDS011;2837;50.990;7.124;2022-10-16T08:39:01;154.20;;;10.50;;
5630;SDS011;2837;50.990;7.124;2022-10-16T08:41:32;153.57;;;9.87;;
5630;SDS011;2837;50.990;7.124;2022-10-16T08:46:59;153.43;;;9.80;;
5630;SDS011;2837;50.990;7.124;2022-10-16T08:50:30;154.77;;;9.70;;
5630;SDS011;2837;50.990;7.124;2022-10-16T08:52:39;153.10;;;9.70;;
5630;SDS011;2837;50.990;7.124;2022-10-16T08:55:09;154.07;;;10.20;;
5630;SDS011;2837;50.990;7.124;2022-10-16T08:57:50;154.20;;;10.60;;
5630;SDS011;2837;50.990;7.124;2022-10-16T09:00:16;153.40;;;9.83;;
5630;SDS011;2837;50.990;7.124;2022-10-16T09:02:52;154.47;;;10.40;;
5630;SDS011;2837;50.990;7.124;2022-10-16T09:11:51;152.90;;;9.17;;
5630;SDS011;2837;50.990;7.124;2022-10-16T09:19:51;152.70;;;8.60;;
5630;SDS011;2837;50.990;7.124;2022-10-16T09:22:25;153.77;;;9.93;;
5630;SDS011;2837;50.990;7.124;2022-10-16T09:24:54;153.47;;;9.47;;
5630;SDS011;2837;50.990;7.124;2022-10-16T09:27:24;152.30;;;9.00;;
5630;SDS011;2837;50.990;7.124;2022-10-16T09:29:50;152.60;;;8.90;;
5630;SDS011;2837;50.990;7.124;2022-10-16T09:32:17;152.77;;;9.27;;
5630;SDS011;2837;50.990;7.124;2022-10-16T09:34:47;152.47;;;8.60;;
5630;SDS011;2837;50.990;7.124;2022-10-16T09:37:21;153.60;;;9.70;;
5630;SDS011;2837;50.990;7.124;2022-10-16T09:39:49;153.93;;;9.93;;
5630;SDS011;2837;50.990;7.124;2022-10-16T09:42:31;152.97;;;9.67;;
5630;SDS011;2837;50.990;7.124;2022-10-16T09:44:59;152.93;;;9.10;;
5630;SDS011;2837;50.990;7.124;2022-10-16T09:47:26;152.77;;;9.27;;
5630;SDS011;2837;50.990;7.124;2022-10-16T09:49:54;152.57;;;9.03;;
5630;SDS011;2837;50.990;7.124;2022-10-16T09:52:27;154.07;;;9.03;;
5630;SDS011;2837;50.990;7.124;2022-10-16T09:57:21;152.00;;;9.00;;
5630;SDS011;2837;50.990;7.124;2022-10-16T09:59:47;152.60;;;8.43;;
5630;SDS011;2837;50.990;7.124;2022-10-16T10:02:15;152.67;;;9.43;;
5630;SDS011;2837;50.990;7.124;2022-10-16T10:04:50;152.83;;;9.17;;
5630;SDS011;2837;50.990;7.124;2022-10-16T10:07:26;153.40;;;9.50;;
5630;SDS011;2837;50.990;7.124;2022-10-16T10:09:58;153.73;;;8.80;;
5630;SDS011;2837;50.990;7.124;2022-10-16T10:12:24;153.37;;;9.83;;
5630;SDS011;2837;50.990;7.124;2022-10-16T10:14:52;152.77;;;9.63;;
5630;SDS011;2837;50.990;7.124;2022-10-16T10:17:21;153.23;;;9.47;;
5630;SDS011;2837;50.990;7.124;2022-10-16T10:20:00;152.63;;;9.40;;
5630;SDS011;2837;50.990;7.124;2022-10-16T10:22:45;152.40;;;9.27;;
5630;SDS011;2837;50.990;7.124;2022-10-16T10:27:48;152.27;;;9.70;;
5630;SDS011;2837;50.990;7.124;2022-10-16T10:36:32;152.07;;;9.00;;
5630;SDS011;2837;50.990;7.124;2022-10-16T10:52:26;152.07;;;9.37;;
5630;SDS011;2837;50.990;7.124;2022-10-16T11:03:46;151.17;;;8.93;;
5630;SDS011;2837;50.990;7.124;2022-10-16T11:06:19;152.97;;;9.60;;
5630;SDS011;2837;50.990;7.124;2022-10-16T11:08:53;153.07;;;10.63;;
5630;SDS011;2837;50.990;7.124;2022-10-16T11:11:25;153.97;;;9.53;;
5630;SDS011;2837;50.990;7.124;2022-10-16T11:14:03;151.57;;;9.10;;
5630;SDS011;2837;50.990;7.124;2022-10-16T11:16:43;151.37;;;9.20;;
5630;SDS011;2837;50.990;7.124;2022-10-16T11:24:47;151.83;;;9.93;;
5630;SDS011;2837;50.990;7.124;2022-10-16T11:27:43;151.37;;;10.23;;
5630;SDS011;2837;50.990;7.124;2022-10-16T11:30:16;152.57;;;10.33;;
5630;SDS011;2837;50.990;7.124;2022-10-16T11:35:37;154.57;;;10.83;;
5630;SDS011;2837;50.990;7.124;2022-10-16T11:38:17;150.73;;;9.10;;
5630;SDS011;2837;50.990;7.124;2022-10-16T11:41:17;152.20;;;9.60;;
5630;SDS011;2837;50.990;7.124;2022-10-16T11:46:52;153.87;;;10.30;;
5630;SDS011;2837;50.990;7.124;2022-10-16T11:49:26;151.87;;;10.40;;
5630;SDS011;2837;50.990;7.124;2022-10-16T11:54:36;151.57;;;9.67;;
5630;SDS011;2837;50.990;7.124;2022-10-16T11:57:29;152.37;;;9.90;;
5630;SDS011;2837;50.990;7.124;2022-10-16T12:00:01;155.90;;;10.53;;
5630;SDS011;2837;50.990;7.124;2022-10-16T12:08:15;154.83;;;10.03;;
5630;SDS011;2837;50.990;7.124;2022-10-16T12:10:42;151.20;;;10.07;;
5630;SDS011;2837;50.990;7.124;2022-10-16T12:18:39;151.10;;;9.90;;
5630;SDS011;2837;50.990;7.124;2022-10-16T12:21:06;151.23;;;9.60;;
5630;SDS011;2837;50.990;7.124;2022-10-16T12:23:52;151.63;;;9.97;;
5630;SDS011;2837;50.990;7.124;2022-10-16T12:26:25;151.20;;;10.10;;
5630;SDS011;2837;50.990;7.124;2022-10-16T12:28:52;151.03;;;10.00;;
5630;SDS011;2837;50.990;7.124;2022-10-16T12:31:20;151.57;;;10.00;;
5630;SDS011;2837;50.990;7.124;2022-10-16T12:33:57;150.70;;;9.37;;
5630;SDS011;2837;50.990;7.124;2022-10-16T12:36:29;151.00;;;9.83;;
5630;SDS011;2837;50.990;7.124;2022-10-16T12:38:59;150.87;;;9.13;;
5630;SDS011;2837;50.990;7.124;2022-10-16T12:43:58;151.13;;;9.80;;
5630;SDS011;2837;50.990;7.124;2022-10-16T12:49:47;151.50;;;10.50;;
5630;SDS011;2837;50.990;7.124;2022-10-16T12:51:47;151.67;;;10.90;;
5630;SDS011;2837;50.990;7.124;2022-10-16T12:54:17;151.90;;;10.53;;
5630;SDS011;2837;50.990;7.124;2022-10-16T12:59:43;151.70;;;10.20;;
5630;SDS011;2837;50.990;7.124;2022-10-16T13:02:39;151.07;;;10.13;;
5630;SDS011;2837;50.990;7.124;2022-10-16T13:14:24;152.17;;;10.40;;
5630;SDS011;2837;50.990;7.124;2022-10-16T13:17:11;151.07;;;9.20;;
5630;SDS011;2837;50.990;7.124;2022-10-16T13:19:57;151.20;;;9.80;;
5630;SDS011;2837;50.990;7.124;2022-10-16T13:25:02;151.50;;;10.30;;
5630;SDS011;2837;50.990;7.124;2022-10-16T13:27:48;152.60;;;9.90;;
5630;SDS011;2837;50.990;7.124;2022-10-16T13:30:27;151.67;;;10.30;;
5630;SDS011;2837;50.990;7.124;2022-10-16T13:35:29;150.87;;;9.10;;
5630;SDS011;2837;50.990;7.124;2022-10-16T13:38:13;151.47;;;9.67;;
5630;SDS011;2837;50.990;7.124;2022-10-16T13:40:57;150.87;;;9.90;;
5630;SDS011;2837;50.990;7.124;2022-10-16T13:46:06;151.03;;;10.13;;
5630;SDS011;2837;50.990;7.124;2022-10-16T13:48:37;150.97;;;10.03;;
5630;SDS011;2837;50.990;7.124;2022-10-16T13:51:10;152.07;;;9.90;;
5630;SDS011;2837;50.990;7.124;2022-10-16T13:53:38;151.17;;;10.20;;
5630;SDS011;2837;50.990;7.124;2022-10-16T13:56:06;150.47;;;9.83;;
5630;SDS011;2837;50.990;7.124;2022-10-16T13:58:43;150.77;;;10.00;;
5630;SDS011;2837;50.990;7.124;2022-10-16T14:03:41;150.40;;;9.30;;
5630;SDS011;2837;50.990;7.124;2022-10-16T14:06:11;150.37;;;9.60;;
5630;SDS011;2837;50.990;7.124;2022-10-16T14:08:55;151.10;;;10.70;;
5630;SDS011;2837;50.990;7.124;2022-10-16T14:11:25;151.67;;;10.20;;
5630;SDS011;2837;50.990;7.124;2022-10-16T14:13:51;150.77;;;10.30;;
5630;SDS011;2837;50.990;7.124;2022-10-16T14:16:19;150.70;;;10.07;;
5630;SDS011;2837;50.990;7.124;2022-10-16T14:18:50;150.40;;;9.97;;
5630;SDS011;2837;50.990;7.124;2022-10-16T14:21:20;151.60;;;10.00;;
5630;SDS011;2837;50.990;7.124;2022-10-16T14:23:45;150.67;;;10.10;;
5630;SDS011;2837;50.990;7.124;2022-10-16T14:28:38;151.37;;;9.83;;
5630;SDS011;2837;50.990;7.124;2022-10-16T14:33:53;151.00;;;10.40;;
5630;SDS011;2837;50.990;7.124;2022-10-16T14:36:19;150.90;;;10.00;;
5630;SDS011;2837;50.990;7.124;2022-10-16T14:39:03;151.60;;;9.70;;
5630;SDS011;2837;50.990;7.124;2022-10-16T14:41:31;150.57;;;9.80;;
5630;SDS011;2837;50.990;7.124;2022-10-16T14:44:01;151.33;;;10.63;;
5630;SDS011;2837;50.990;7.124;2022-10-16T14:46:35;152.27;;;10.03;;
5630;SDS011;2837;50.990;7.124;2022-10-16T14:49:03;151.27;;;10.50;;
5630;SDS011;2837;50.990;7.124;2022-10-16T14:51:39;151.27;;;10.27;;
5630;SDS011;2837;50.990;7.124;2022-10-16T14:54:11;151.27;;;10.40;;
5630;SDS011;2837;50.990;7.124;2022-10-16T14:56:43;152.60;;;10.13;;
5630;SDS011;2837;50.990;7.124;2022-10-16T14:59:24;151.37;;;10.40;;
5630;SDS011;2837;50.990;7.124;2022-10-16T15:02:00;151.17;;;10.03;;
5630;SDS011;2837;50.990;7.124;2022-10-16T15:04:41;151.97;;;10.10;;
5630;SDS011;2837;50.990;7.124;2022-10-16T15:07:07;151.40;;;10.60;;
5630;SDS011;2837;50.990;7.124;2022-10-16T15:09:33;151.07;;;9.83;;
5630;SDS011;2837;50.990;7.124;2022-10-16T15:11:58;152.30;;;10.97;;
5630;SDS011;2837;50.990;7.124;2022-10-16T15:14:24;151.87;;;9.93;;
5630;SDS011;2837;50.990;7.124;2022-10-16T15:16:49;152.67;;;10.40;;
5630;SDS011;2837;50.990;7.124;2022-10-16T15:19:15;151.77;;;10.00;;
5630;SDS011;2837;50.990;7.124;2022-10-16T15:21:40;152.17;;;10.37;;
5630;SDS011;2837;50.990;7.124;2022-10-16T15:24:13;151.87;;;10.60;;
5630;SDS011;2837;50.990;7.124;2022-10-16T15:26:39;153.73;;;11.00;;
5630;SDS011;2837;50.990;7.124;2022-10-16T15:29:05;153.30;;;9.73;;
5630;SDS011;2837;50.990;7.124;2022-10-16T15:31:31;151.57;;;9.93;;
5630;SDS011;2837;50.990;7.124;2022-10-16T15:33:57;151.97;;;10.20;;
5630;SDS011;2837;50.990;7.124;2022-10-16T15:36:30;151.93;;;10.77;;
5630;SDS011;2837;50.990;7.124;2022-10-16T15:38:59;150.90;;;9.50;;
5630;SDS011;2837;50.990;7.124;2022-10-16T15:41:25;151.57;;;10.17;;
5630;SDS011;2837;50.990;7.124;2022-10-16T15:43:51;151.97;;;10.37;;
5630;SDS011;2837;50.990;7.124;2022-10-16T15:46:21;152.47;;;11.13;;
5630;SDS011;2837;50.990;7.124;2022-10-16T15:48:48;157.67;;;11.10;;
5630;SDS011;2837;50.990;7.124;2022-10-16T15:51:15;151.80;;;10.40;;
5630;SDS011;2837;50.990;7.124;2022-10-16T15:53:40;152.17;;;10.77;;
5630;SDS011;2837;50.990;7.124;2022-10-16T15:56:07;152.03;;;10.43;;
5630;SDS011;2837;50.990;7.124;2022-10-16T15:58:34;151.67;;;10.30;;
5630;SDS011;2837;50.990;7.124;2022-10-16T16:01:00;151.03;;;9.87;;
5630;SDS011;2837;50.990;7.124;2022-10-16T16:03:26;154.80;;;11.87;;
5630;SDS011;2837;50.990;7.124;2022-10-16T16:05:53;151.40;;;9.60;;
5630;SDS011;2837;50.990;7.124;2022-10-16T16:08:19;150.97;;;9.43;;
5630;SDS011;2837;50.990;7.124;2022-10-16T16:10:45;151.77;;;9.97;;
5630;SDS011;2837;50.990;7.124;2022-10-16T16:13:10;152.60;;;10.17;;
5630;SDS011;2837;50.990;7.124;2022-10-16T16:15:39;151.93;;;10.23;;
5630;SDS011;2837;50.990;7.124;2022-10-16T16:18:05;151.50;;;9.90;;
5630;SDS011;2837;50.990;7.124;2022-10-16T16:20:31;152.20;;;11.27;;
5630;SDS011;2837;50.990;7.124;2022-10-16T16:22:57;153.27;;;11.77;;
5630;SDS011;2837;50.990;7.124;2022-10-16T16:25:22;152.67;;;11.07;;
5630;SDS011;2837;50.990;7.124;2022-10-16T16:27:48;155.57;;;11.20;;
5630;SDS011;2837;50.990;7.124;2022-10-16T16:30:14;154.20;;;12.17;;
5630;SDS011;2837;50.990;7.124;2022-10-16T16:32:39;152.40;;;10.07;;
5630;SDS011;2837;50.990;7.124;2022-10-16T16:35:05;157.00;;;10.73;;
5630;SDS011;2837;50.990;7.124;2022-10-16T16:37:31;152.37;;;11.03;;
5630;SDS011;2837;50.990;7.124;2022-10-16T16:39:57;152.70;;;10.80;;
5630;SDS011;2837;50.990;7.124;2022-10-16T16:42:25;151.77;;;10.00;;
5630;SDS011;2837;50.990;7.124;2022-10-16T16:44:51;151.80;;;9.50;;
5630;SDS011;2837;50.990;7.124;2022-10-16T16:47:17;151.43;;;9.70;;
5630;SDS011;2837;50.990;7.124;2022-10-16T16:49:43;152.53;;;11.30;;
5630;SDS011;2837;50.990;7.124;2022-10-16T16:52:08;153.10;;;10.07;;
5630;SDS011;2837;50.990;7.124;2022-10-16T16:54:34;152.50;;;11.07;;
5630;SDS011;2837;50.990;7.124;2022-10-16T16:56:59;152.77;;;10.33;;
5630;SDS011;2837;50.990;7.124;2022-10-16T16:59:25;152.63;;;11.03;;
5630;SDS011;2837;50.990;7.124;2022-10-16T17:01:51;151.87;;;10.90;;
5630;SDS011;2837;50.990;7.124;2022-10-16T17:04:16;150.57;;;9.57;;
5630;SDS011;2837;50.990;7.124;2022-10-16T17:06:43;152.47;;;11.17;;
5630;SDS011;2837;50.990;7.124;2022-10-16T17:09:09;151.47;;;10.30;;
5630;SDS011;2837;50.990;7.124;2022-10-16T17:11:38;154.53;;;10.27;;
5630;SDS011;2837;50.990;7.124;2022-10-16T17:14:06;152.27;;;10.40;;
5630;SDS011;2837;50.990;7.124;2022-10-16T17:16:33;151.47;;;9.77;;
5630;SDS011;2837;50.990;7.124;2022-10-16T17:19:00;151.97;;;10.60;;
5630;SDS011;2837;50.990;7.124;2022-10-16T17:21:28;153.97;;;11.03;;
5630;SDS011;2837;50.990;7.124;2022-10-16T17:23:54;152.80;;;11.23;;
5630;SDS011;2837;50.990;7.124;2022-10-16T17:26:20;152.67;;;11.23;;
5630;SDS011;2837;50.990;7.124;2022-10-16T17:28:45;153.50;;;9.90;;
5630;SDS011;2837;50.990;7.124;2022-10-16T17:31:16;150.97;;;9.80;;
5630;SDS011;2837;50.990;7.124;2022-10-16T17:33:44;151.17;;;9.43;;
5630;SDS011;2837;50.990;7.124;2022-10-16T17:36:10;151.23;;;10.23;;
5630;SDS011;2837;50.990;7.124;2022-10-16T17:38:38;151.77;;;9.90;;
5630;SDS011;2837;50.990;7.124;2022-10-16T17:41:11;151.27;;;10.30;;
5630;SDS011;2837;50.990;7.124;2022-10-16T17:43:48;152.37;;;10.40;;
5630;SDS011;2837;50.990;7.124;2022-10-16T17:46:14;152.03;;;10.50;;
5630;SDS011;2837;50.990;7.124;2022-10-16T17:48:43;151.33;;;9.97;;
5630;SDS011;2837;50.990;7.124;2022-10-16T17:51:11;151.13;;;9.77;;
5630;SDS011;2837;50.990;7.124;2022-10-16T17:53:38;151.57;;;9.83;;
5630;SDS011;2837;50.990;7.124;2022-10-16T17:58:32;151.87;;;10.13;;
5630;SDS011;2837;50.990;7.124;2022-10-16T18:00:58;151.57;;;10.50;;
5630;SDS011;2837;50.990;7.124;2022-10-16T18:03:23;152.30;;;10.30;;
5630;SDS011;2837;50.990;7.124;2022-10-16T18:05:51;152.47;;;11.03;;
5630;SDS011;2837;50.990;7.124;2022-10-16T18:08:17;151.37;;;9.60;;
5630;SDS011;2837;50.990;7.124;2022-10-16T18:10:49;154.50;;;9.77;;
5630;SDS011;2837;50.990;7.124;2022-10-16T18:13:15;154.47;;;10.83;;
5630;SDS011;2837;50.990;7.124;2022-10-16T18:15:42;151.67;;;10.40;;
5630;SDS011;2837;50.990;7.124;2022-10-16T18:18:07;151.83;;;10.40;;
5630;SDS011;2837;50.990;7.124;2022-10-16T18:20:33;151.47;;;9.93;;
5630;SDS011;2837;50.990;7.124;2022-10-16T18:22:59;153.07;;;10.83;;
5630;SDS011;2837;50.990;7.124;2022-10-16T18:25:24;152.00;;;10.23;;
5630;SDS011;2837;50.990;7.124;2022-10-16T18:27:50;152.10;;;10.43;;
5630;SDS011;2837;50.990;7.124;2022-10-16T18:30:15;155.03;;;11.17;;
5630;SDS011;2837;50.990;7.124;2022-10-16T18:32:41;150.87;;;9.40;;
5630;SDS011;2837;50.990;7.124;2022-10-16T18:35:07;152.27;;;11.17;;
5630;SDS011;2837;50.990;7.124;2022-10-16T18:37:36;152.27;;;10.23;;
5630;SDS011;2837;50.990;7.124;2022-10-16T18:40:02;154.97;;;10.60;;
5630;SDS011;2837;50.990;7.124;2022-10-16T18:42:28;153.57;;;12.03;;
5630;SDS011;2837;50.990;7.124;2022-10-16T18:44:54;151.50;;;10.17;;
5630;SDS011;2837;50.990;7.124;2022-10-16T18:47:20;152.47;;;10.37;;
5630;SDS011;2837;50.990;7.124;2022-10-16T18:49:48;152.53;;;9.80;;
5630;SDS011;2837;50.990;7.124;2022-10-16T18:52:14;152.80;;;10.70;;
5630;SDS011;2837;50.990;7.124;2022-10-16T18:54:40;152.10;;;10.43;;
5630;SDS011;2837;50.990;7.124;2022-10-16T18:57:06;154.23;;;11.23;;
5630;SDS011;2837;50.990;7.124;2022-10-16T18:59:31;156.60;;;10.17;;
5630;SDS011;2837;50.990;7.124;2022-10-16T19:01:57;151.57;;;10.17;;
5630;SDS011;2837;50.990;7.124;2022-10-16T19:04:23;152.27;;;10.77;;
5630;SDS011;2837;50.990;7.124;2022-10-16T19:06:50;151.67;;;9.87;;
5630;SDS011;2837;50.990;7.124;2022-10-16T19:09:18;151.97;;;10.07;;
5630;SDS011;2837;50.990;7.124;2022-10-16T19:11:46;151.50;;;10.20;;
5630;SDS011;2837;50.990;7.124;2022-10-16T19:14:13;152.00;;;10.30;;
5630;SDS011;2837;50.990;7.124;2022-10-16T19:16:40;152.77;;;10.63;;
5630;SDS011;2837;50.990;7.124;2022-10-16T19:19:11;153.87;;;10.40;;
5630;SDS011;2837;50.990;7.124;2022-10-16T19:21:42;151.43;;;10.10;;
5630;SDS011;2837;50.990;7.124;2022-10-16T19:24:09;152.27;;;11.00;;
5630;SDS011;2837;50.990;7.124;2022-10-16T19:26:39;152.27;;;10.53;;
5630;SDS011;2837;50.990;7.124;2022-10-16T19:29:05;151.77;;;10.60;;
5630;SDS011;2837;50.990;7.124;2022-10-16T19:31:32;152.47;;;10.63;;
5630;SDS011;2837;50.990;7.124;2022-10-16T19:33:59;152.00;;;10.53;;
5630;SDS011;2837;50.990;7.124;2022-10-16T19:36:28;152.40;;;9.70;;
5630;SDS011;2837;50.990;7.124;2022-10-16T19:38:59;152.70;;;10.37;;
5630;SDS011;2837;50.990;7.124;2022-10-16T19:41:26;151.57;;;10.40;;
5630;SDS011;2837;50.990;7.124;2022-10-16T19:43:53;153.07;;;10.30;;
5630;SDS011;2837;50.990;7.124;2022-10-16T19:46:22;151.33;;;9.50;;
5630;SDS011;2837;50.990;7.124;2022-10-16T19:48:53;154.57;;;10.70;;
5630;SDS011;2837;50.990;7.124;2022-10-16T19:51:20;154.67;;;11.27;;
5630;SDS011;2837;50.990;7.124;2022-10-16T19:53:46;152.50;;;10.20;;
5630;SDS011;2837;50.990;7.124;2022-10-16T19:56:16;152.00;;;10.60;;
5630;SDS011;2837;50.990;7.124;2022-10-16T19:58:43;152.93;;;10.83;;
5630;SDS011;2837;50.990;7.124;2022-10-16T20:01:10;151.87;;;10.23;;
5630;SDS011;2837;50.990;7.124;2022-10-16T20:03:36;153.67;;;11.40;;
5630;SDS011;2837;50.990;7.124;2022-10-16T20:06:05;154.50;;;10.50;;
5630;SDS011;2837;50.990;7.124;2022-10-16T20:08:33;151.93;;;10.47;;
5630;SDS011;2837;50.990;7.124;2022-10-16T20:10:59;152.50;;;10.63;;
5630;SDS011;2837;50.990;7.124;2022-10-16T20:13:25;152.70;;;10.53;;
5630;SDS011;2837;50.990;7.124;2022-10-16T20:15:52;155.20;;;10.33;;
5630;SDS011;2837;50.990;7.124;2022-10-16T20:18:18;154.90;;;11.03;;
5630;SDS011;2837;50.990;7.124;2022-10-16T20:20:45;153.40;;;11.27;;
5630;SDS011;2837;50.990;7.124;2022-10-16T20:23:13;153.03;;;11.00;;
5630;SDS011;2837;50.990;7.124;2022-10-16T20:25:40;153.60;;;10.37;;
5630;SDS011;2837;50.990;7.124;2022-10-16T20:28:07;152.50;;;9.77;;
5630;SDS011;2837;50.990;7.124;2022-10-16T20:30:35;153.40;;;11.30;;
5630;SDS011;2837;50.990;7.124;2022-10-16T20:33:03;153.97;;;10.37;;
5630;SDS011;2837;50.990;7.124;2022-10-16T20:35:28;152.70;;;10.27;;
5630;SDS011;2837;50.990;7.124;2022-10-16T20:38:00;155.17;;;10.80;;
5630;SDS011;2837;50.990;7.124;2022-10-16T20:40:25;152.70;;;10.40;;
5630;SDS011;2837;50.990;7.124;2022-10-16T20:42:51;152.30;;;9.80;;
5630;SDS011;2837;50.990;7.124;2022-10-16T20:45:16;153.33;;;10.70;;
5630;SDS011;2837;50.990;7.124;2022-10-16T20:47:42;152.93;;;10.50;;
5630;SDS011;2837;50.990;7.124;2022-10-16T20:50:07;155.00;;;10.13;;
5630;SDS011;2837;50.990;7.124;2022-10-16T20:52:33;153.07;;;10.50;;
5630;SDS011;2837;50.990;7.124;2022-10-16T20:54:59;151.90;;;9.87;;
5630;SDS011;2837;50.990;7.124;2022-10-16T20:57:24;156.17;;;11.47;;
5630;SDS011;2837;50.990;7.124;2022-10-16T20:59:50;153.00;;;10.93;;
